sensor_id;sensor_type;location;lat;lon;timestamp;pressure;altitude;pressure_sealevel;temperature;humidity
60479;BME280;46321;48.398;11.754;2023-08-08T00:01:01;96812.09;;;11.64;74.85
60479;BME280;46321;48.398;11.754;2023-08-08T00:03:27;96811.59;;;11.61;74.76
60479;BME280;46321;48.398;11.754;2023-08-08T00:05:52;96809.13;;;11.59;74.71
60479;BME280;46321;48.398;11.754;2023-08-08T00:08:17;96797.22;;;11.55;75.11
60479;BME280;46321;48.398;11.754;2023-08-08T00:10:42;96808.88;;;11.45;75.12
60479;BME280;46321;48.398;11.754;2023-08-08T00:13:07;96802.09;;;11.43;75.48
60479;BME280;46321;48.398;11.754;2023-08-08T00:15:33;96799.63;;;11.41;75.46
60479;BME280;46321;48.398;11.754;2023-08-08T00:17:58;96804.44;;;11.38;75.20
60479;BME280;46321;48.398;11.754;2023-08-08T00:20:23;96803.59;;;11.37;75.62
60479;BME280;46321;48.398;11.754;2023-08-08T00:22:48;96806.25;;;11.37;75.36
60479;BME280;46321;48.398;11.754;2023-08-08T00:25:13;96803.25;;;11.40;75.50
60479;BME280;46321;48.398;11.754;2023-08-08T00:27:39;96805.75;;;11.42;75.06
60479;BME280;46321;48.398;11.754;2023-08-08T00:30:08;96802.97;;;11.35;75.46
60479;BME280;46321;48.398;11.754;2023-08-08T00:32:34;96802.00;;;11.28;75.71
60479;BME280;46321;48.398;11.754;2023-08-08T00:34:59;96794.88;;;11.28;75.86
60479;BME280;46321;48.398;11.754;2023-08-08T00:37:24;96802.50;;;11.23;75.63
60479;BME280;46321;48.398;11.754;2023-08-08T00:39:49;96800.03;;;11.21;75.76
60479;BME280;46321;48.398;11.754;2023-08-08T00:42:14;96793.72;;;11.22;76.21
60479;BME280;46321;48.398;11.754;2023-08-08T00:44:40;96803.88;;;11.10;76.58
60479;BME280;46321;48.398;11.754;2023-08-08T00:47:06;96798.06;;;11.15;76.27
60479;BME280;46321;48.398;11.754;2023-08-08T00:49:32;96796.22;;;11.16;76.15
60479;BME280;46321;48.398;11.754;2023-08-08T00:51:57;96789.75;;;11.18;76.28
60479;BME280;46321;48.398;11.754;2023-08-08T00:54:22;96782.97;;;11.16;76.27
60479;BME280;46321;48.398;11.754;2023-08-08T00:56:47;96784.84;;;11.07;76.61
60479;BME280;46321;48.398;11.754;2023-08-08T00:59:12;96789.97;;;11.08;76.42
60479;BME280;46321;48.398;11.754;2023-08-08T01:01:38;96788.81;;;11.11;76.16
60479;BME280;46321;48.398;11.754;2023-08-08T01:04:03;96785.66;;;11.07;76.68
60479;BME280;46321;48.398;11.754;2023-08-08T01:06:35;96792.78;;;11.07;76.68
60479;BME280;46321;48.398;11.754;2023-08-08T01:09:08;96783.53;;;11.11;76.38
60479;BME280;46321;48.398;11.754;2023-08-08T01:11:34;96786.31;;;11.09;76.23
60479;BME280;46321;48.398;11.754;2023-08-08T01:13:59;96777.53;;;11.09;76.13
60479;BME280;46321;48.398;11.754;2023-08-08T01:16:25;96777.38;;;11.10;76.08
60479;BME280;46321;48.398;11.754;2023-08-08T01:18:51;96773.72;;;11.11;76.43
60479;BME280;46321;48.398;11.754;2023-08-08T01:21:16;96768.59;;;11.10;76.54
60479;BME280;46321;48.398;11.754;2023-08-08T01:23:46;96768.94;;;11.15;76.59
60479;BME280;46321;48.398;11.754;2023-08-08T01:26:12;96768.28;;;11.13;76.62
60479;BME280;46321;48.398;11.754;2023-08-08T01:28:37;96773.25;;;11.08;76.51
60479;BME280;46321;48.398;11.754;2023-08-08T01:31:03;96767.13;;;11.07;76.73
60479;BME280;46321;48.398;11.754;2023-08-08T01:33:28;96767.78;;;11.09;76.72
60479;BME280;46321;48.398;11.754;2023-08-08T01:35:54;96768.13;;;11.06;76.50
60479;BME280;46321;48.398;11.754;2023-08-08T01:38:23;96766.94;;;11.09;76.73
60479;BME280;46321;48.398;11.754;2023-08-08T01:40:51;96764.84;;;11.04;76.97
60479;BME280;46321;48.398;11.754;2023-08-08T01:43:17;96771.44;;;11.08;76.85
60479;BME280;46321;48.398;11.754;2023-08-08T01:45:43;96772.59;;;11.06;76.81
60479;BME280;46321;48.398;11.754;2023-08-08T01:48:09;96768.13;;;11.06;77.02
60479;BME280;46321;48.398;11.754;2023-08-08T01:50:34;96757.34;;;11.08;76.93
60479;BME280;46321;48.398;11.754;2023-08-08T01:52:59;96761.31;;;11.12;77.16
60479;BME280;46321;48.398;11.754;2023-08-08T01:55:25;96757.03;;;11.03;77.33
60479;BME280;46321;48.398;11.754;2023-08-08T01:57:50;96757.69;;;11.05;77.46
60479;BME280;46321;48.398;11.754;2023-08-08T02:00:15;96755.19;;;11.11;77.39
60479;BME280;46321;48.398;11.754;2023-08-08T02:02:40;96752.53;;;11.11;76.92
60479;BME280;46321;48.398;11.754;2023-08-08T02:05:05;96754.84;;;11.15;76.99
60479;BME280;46321;48.398;11.754;2023-08-08T02:07:31;96756.72;;;11.06;76.92
60479;BME280;46321;48.398;11.754;2023-08-08T02:09:56;96750.56;;;11.05;76.86
60479;BME280;46321;48.398;11.754;2023-08-08T02:12:21;96753.03;;;11.07;77.07
60479;BME280;46321;48.398;11.754;2023-08-08T02:14:46;96746.94;;;11.06;76.82
60479;BME280;46321;48.398;11.754;2023-08-08T02:17:11;96756.53;;;11.07;76.94
60479;BME280;46321;48.398;11.754;2023-08-08T02:19:37;96749.28;;;11.01;77.03
60479;BME280;46321;48.398;11.754;2023-08-08T02:22:02;96744.16;;;10.99;76.81
60479;BME280;46321;48.398;11.754;2023-08-08T02:24:27;96746.47;;;10.94;77.07
60479;BME280;46321;48.398;11.754;2023-08-08T02:26:52;96747.19;;;10.88;77.40
60479;BME280;46321;48.398;11.754;2023-08-08T02:29:17;96741.03;;;10.87;77.43
60479;BME280;46321;48.398;11.754;2023-08-08T02:31:42;96746.19;;;10.81;78.09
60479;BME280;46321;48.398;11.754;2023-08-08T02:34:08;96741.91;;;10.80;77.79
60479;BME280;46321;48.398;11.754;2023-08-08T02:36:33;96743.22;;;10.75;77.88
60479;BME280;46321;48.398;11.754;2023-08-08T02:38:58;96747.38;;;10.70;78.12
60479;BME280;46321;48.398;11.754;2023-08-08T02:41:23;96743.59;;;10.72;77.85
60479;BME280;46321;48.398;11.754;2023-08-08T02:43:48;96746.06;;;10.65;77.89
60479;BME280;46321;48.398;11.754;2023-08-08T02:46:14;96741.75;;;10.73;77.80
60479;BME280;46321;48.398;11.754;2023-08-08T02:48:39;96748.56;;;10.67;77.79
60479;BME280;46321;48.398;11.754;2023-08-08T02:51:04;96745.28;;;10.57;78.09
60479;BME280;46321;48.398;11.754;2023-08-08T02:53:29;96744.63;;;10.55;78.09
60479;BME280;46321;48.398;11.754;2023-08-08T02:55:54;96749.25;;;10.52;78.15
60479;BME280;46321;48.398;11.754;2023-08-08T02:58:19;96742.94;;;10.53;78.11
60479;BME280;46321;48.398;11.754;2023-08-08T03:00:45;96746.25;;;10.56;78.03
60479;BME280;46321;48.398;11.754;2023-08-08T03:03:10;96743.13;;;10.52;77.70
60479;BME280;46321;48.398;11.754;2023-08-08T03:05:35;96756.19;;;10.53;77.61
60479;BME280;46321;48.398;11.754;2023-08-08T03:08:00;96754.69;;;10.51;77.78
60479;BME280;46321;48.398;11.754;2023-08-08T03:10:25;96758.19;;;10.51;77.66
60479;BME280;46321;48.398;11.754;2023-08-08T03:12:51;96756.84;;;10.47;78.03
60479;BME280;46321;48.398;11.754;2023-08-08T03:15:16;96752.69;;;10.45;77.94
60479;BME280;46321;48.398;11.754;2023-08-08T03:17:41;96750.41;;;10.41;78.25
60479;BME280;46321;48.398;11.754;2023-08-08T03:20:06;96741.63;;;10.41;78.08
60479;BME280;46321;48.398;11.754;2023-08-08T03:22:32;96750.06;;;10.45;78.32
60479;BME280;46321;48.398;11.754;2023-08-08T03:24:57;96747.78;;;10.50;78.21
60479;BME280;46321;48.398;11.754;2023-08-08T03:27:23;96739.31;;;10.55;78.22
60479;BME280;46321;48.398;11.754;2023-08-08T03:29:48;96745.09;;;10.58;77.90
60479;BME280;46321;48.398;11.754;2023-08-08T03:32:13;96740.63;;;10.59;77.89
60479;BME280;46321;48.398;11.754;2023-08-08T03:34:38;96738.00;;;10.59;77.72
60479;BME280;46321;48.398;11.754;2023-08-08T03:37:04;96735.34;;;10.59;77.79
60479;BME280;46321;48.398;11.754;2023-08-08T03:39:29;96738.16;;;10.57;77.94
60479;BME280;46321;48.398;11.754;2023-08-08T03:41:54;96737.34;;;10.57;78.04
60479;BME280;46321;48.398;11.754;2023-08-08T03:44:19;96737.34;;;10.57;78.27
60479;BME280;46321;48.398;11.754;2023-08-08T03:46:44;96733.03;;;10.56;78.80
60479;BME280;46321;48.398;11.754;2023-08-08T03:49:10;96737.66;;;10.53;78.49
60479;BME280;46321;48.398;11.754;2023-08-08T03:51:35;96733.66;;;10.58;78.01
60479;BME280;46321;48.398;11.754;2023-08-08T03:54:00;96743.28;;;10.59;78.05
60479;BME280;46321;48.398;11.754;2023-08-08T03:56:25;96744.59;;;10.63;77.83
60479;BME280;46321;48.398;11.754;2023-08-08T03:58:52;96737.47;;;10.63;78.18
60479;BME280;46321;48.398;11.754;2023-08-08T04:01:17;96738.97;;;10.66;78.08
60479;BME280;46321;48.398;11.754;2023-08-08T04:03:42;96742.78;;;10.63;77.93
60479;BME280;46321;48.398;11.754;2023-08-08T04:06:07;96749.56;;;10.66;78.25
60479;BME280;46321;48.398;11.754;2023-08-08T04:08:32;96747.56;;;10.68;78.04
60479;BME280;46321;48.398;11.754;2023-08-08T04:10:57;96745.91;;;10.67;78.17
60479;BME280;46321;48.398;11.754;2023-08-08T04:13:23;96753.19;;;10.65;78.27
60479;BME280;46321;48.398;11.754;2023-08-08T04:15:48;96749.84;;;10.71;78.34
60479;BME280;46321;48.398;11.754;2023-08-08T04:18:13;96745.41;;;10.72;78.12
60479;BME280;46321;48.398;11.754;2023-08-08T04:20:38;96757.66;;;10.73;78.28
60479;BME280;46321;48.398;11.754;2023-08-08T04:23:03;96749.16;;;10.77;78.38
60479;BME280;46321;48.398;11.754;2023-08-08T04:25:29;96750.50;;;10.82;78.16
60479;BME280;46321;48.398;11.754;2023-08-08T04:27:54;96749.50;;;10.83;78.24
60479;BME280;46321;48.398;11.754;2023-08-08T04:30:20;96747.03;;;10.81;78.42
60479;BME280;46321;48.398;11.754;2023-08-08T04:32:45;96753.63;;;10.85;78.22
60479;BME280;46321;48.398;11.754;2023-08-08T04:35:10;96754.47;;;10.86;78.43
60479;BME280;46321;48.398;11.754;2023-08-08T04:37:35;96752.28;;;10.90;78.19
60479;BME280;46321;48.398;11.754;2023-08-08T04:40:00;96753.13;;;10.90;78.77
60479;BME280;46321;48.398;11.754;2023-08-08T04:42:25;96745.50;;;10.95;78.45
60479;BME280;46321;48.398;11.754;2023-08-08T04:44:51;96744.16;;;10.99;78.24
60479;BME280;46321;48.398;11.754;2023-08-08T04:47:16;96752.41;;;11.05;78.25
60479;BME280;46321;48.398;11.754;2023-08-08T04:49:41;96756.34;;;11.09;78.28
60479;BME280;46321;48.398;11.754;2023-08-08T04:52:06;96751.72;;;11.11;78.01
60479;BME280;46321;48.398;11.754;2023-08-08T04:54:31;96761.97;;;11.14;77.96
60479;BME280;46321;48.398;11.754;2023-08-08T04:56:57;96762.75;;;11.23;78.22
60479;BME280;46321;48.398;11.754;2023-08-08T04:59:22;96756.94;;;11.28;78.32
60479;BME280;46321;48.398;11.754;2023-08-08T05:01:47;96759.59;;;11.28;78.22
60479;BME280;46321;48.398;11.754;2023-08-08T05:04:12;96756.75;;;11.29;78.31
60479;BME280;46321;48.398;11.754;2023-08-08T05:06:37;96741.00;;;11.36;78.15
60479;BME280;46321;48.398;11.754;2023-08-08T05:09:02;96748.91;;;11.44;77.65
60479;BME280;46321;48.398;11.754;2023-08-08T05:11:28;96745.91;;;11.48;78.06
60479;BME280;46321;48.398;11.754;2023-08-08T05:13:53;96741.38;;;11.56;77.33
60479;BME280;46321;48.398;11.754;2023-08-08T05:16:18;96747.44;;;11.65;76.96
60479;BME280;46321;48.398;11.754;2023-08-08T05:18:44;96745.75;;;11.73;76.32
60479;BME280;46321;48.398;11.754;2023-08-08T05:21:10;96734.63;;;11.77;76.78
60479;BME280;46321;48.398;11.754;2023-08-08T05:23:35;96743.34;;;11.86;76.03
60479;BME280;46321;48.398;11.754;2023-08-08T05:26:00;96739.31;;;11.90;75.74
60479;BME280;46321;48.398;11.754;2023-08-08T05:28:25;96746.56;;;11.97;75.67
60479;BME280;46321;48.398;11.754;2023-08-08T05:30:51;96746.88;;;12.02;75.37
60479;BME280;46321;48.398;11.754;2023-08-08T05:33:16;96752.47;;;12.07;75.88
60479;BME280;46321;48.398;11.754;2023-08-08T05:35:41;96760.56;;;12.14;75.47
60479;BME280;46321;48.398;11.754;2023-08-08T05:38:06;96761.50;;;12.21;75.48
60479;BME280;46321;48.398;11.754;2023-08-08T05:40:34;96751.16;;;12.27;75.71
60479;BME280;46321;48.398;11.754;2023-08-08T05:42:59;96753.94;;;12.33;75.73
60479;BME280;46321;48.398;11.754;2023-08-08T05:45:24;96747.72;;;12.41;75.22
60479;BME280;46321;48.398;11.754;2023-08-08T05:47:49;96745.78;;;12.50;74.61
60479;BME280;46321;48.398;11.754;2023-08-08T05:50:14;96749.19;;;12.59;74.41
60479;BME280;46321;48.398;11.754;2023-08-08T05:52:40;96751.78;;;12.67;75.29
60479;BME280;46321;48.398;11.754;2023-08-08T05:55:05;96746.81;;;12.79;74.44
60479;BME280;46321;48.398;11.754;2023-08-08T05:57:30;96741.69;;;12.93;73.70
60479;BME280;46321;48.398;11.754;2023-08-08T05:59:56;96749.47;;;13.10;73.90
60479;BME280;46321;48.398;11.754;2023-08-08T06:02:21;96747.91;;;13.15;72.83
60479;BME280;46321;48.398;11.754;2023-08-08T06:04:46;96748.81;;;13.23;72.27
60479;BME280;46321;48.398;11.754;2023-08-08T06:07:12;96750.94;;;13.27;71.56
60479;BME280;46321;48.398;11.754;2023-08-08T06:09:37;96753.38;;;13.29;71.96
60479;BME280;46321;48.398;11.754;2023-08-08T06:12:02;96751.84;;;13.35;71.55
60479;BME280;46321;48.398;11.754;2023-08-08T06:14:28;96759.69;;;13.43;71.54
60479;BME280;46321;48.398;11.754;2023-08-08T06:16:53;96750.78;;;13.51;71.31
60479;BME280;46321;48.398;11.754;2023-08-08T06:19:18;96756.25;;;13.65;71.52
60479;BME280;46321;48.398;11.754;2023-08-08T06:21:43;96751.00;;;13.71;71.18
60479;BME280;46321;48.398;11.754;2023-08-08T06:24:08;96755.13;;;13.74;69.95
60479;BME280;46321;48.398;11.754;2023-08-08T06:26:33;96755.41;;;13.79;69.33
60479;BME280;46321;48.398;11.754;2023-08-08T06:28:59;96753.44;;;13.88;70.26
60479;BME280;46321;48.398;11.754;2023-08-08T06:31:24;96753.38;;;14.03;69.96
60479;BME280;46321;48.398;11.754;2023-08-08T06:33:49;96753.91;;;14.20;69.71
60479;BME280;46321;48.398;11.754;2023-08-08T06:36:14;96751.00;;;14.37;69.31
60479;BME280;46321;48.398;11.754;2023-08-08T06:38:39;96758.69;;;14.54;69.63
60479;BME280;46321;48.398;11.754;2023-08-08T06:41:04;96749.56;;;14.70;69.09
60479;BME280;46321;48.398;11.754;2023-08-08T06:43:30;96742.53;;;14.84;68.16
60479;BME280;46321;48.398;11.754;2023-08-08T06:45:55;96749.34;;;14.94;66.45
60479;BME280;46321;48.398;11.754;2023-08-08T06:48:20;96738.88;;;14.99;66.93
60479;BME280;46321;48.398;11.754;2023-08-08T06:50:46;96734.22;;;15.08;65.86
60479;BME280;46321;48.398;11.754;2023-08-08T06:53:11;96740.44;;;15.22;66.45
60479;BME280;46321;48.398;11.754;2023-08-08T06:55:36;96735.78;;;15.38;65.12
60479;BME280;46321;48.398;11.754;2023-08-08T06:58:01;96741.56;;;15.55;65.05
60479;BME280;46321;48.398;11.754;2023-08-08T07:00:26;96745.31;;;15.67;65.23
60479;BME280;46321;48.398;11.754;2023-08-08T07:02:55;96745.34;;;15.81;65.30
60479;BME280;46321;48.398;11.754;2023-08-08T07:05:20;96732.19;;;15.93;65.40
60479;BME280;46321;48.398;11.754;2023-08-08T07:07:47;96725.88;;;16.08;63.86
60479;BME280;46321;48.398;11.754;2023-08-08T07:10:13;96736.56;;;16.42;64.22
60479;BME280;46321;48.398;11.754;2023-08-08T07:12:38;96730.97;;;16.64;61.32
60479;BME280;46321;48.398;11.754;2023-08-08T07:15:04;96725.16;;;16.87;62.00
60479;BME280;46321;48.398;11.754;2023-08-08T07:17:29;96723.25;;;17.08;61.35
60479;BME280;46321;48.398;11.754;2023-08-08T07:19:55;96724.84;;;17.23;60.21
60479;BME280;46321;48.398;11.754;2023-08-08T07:22:21;96734.06;;;17.41;58.64
60479;BME280;46321;48.398;11.754;2023-08-08T07:24:47;96723.09;;;17.49;58.27
60479;BME280;46321;48.398;11.754;2023-08-08T07:27:12;96725.06;;;17.67;58.73
60479;BME280;46321;48.398;11.754;2023-08-08T07:29:37;96716.75;;;17.82;56.49
60479;BME280;46321;48.398;11.754;2023-08-08T07:32:03;96716.03;;;17.94;56.86
60479;BME280;46321;48.398;11.754;2023-08-08T07:34:29;96714.00;;;18.15;56.62
60479;BME280;46321;48.398;11.754;2023-08-08T07:36:54;96706.13;;;18.27;55.56
60479;BME280;46321;48.398;11.754;2023-08-08T07:39:19;96708.63;;;18.47;55.29
60479;BME280;46321;48.398;11.754;2023-08-08T07:41:45;96708.03;;;18.64;55.97
60479;BME280;46321;48.398;11.754;2023-08-08T07:44:10;96701.19;;;18.87;53.71
60479;BME280;46321;48.398;11.754;2023-08-08T07:46:35;96701.41;;;19.04;53.54
60479;BME280;46321;48.398;11.754;2023-08-08T07:49:00;96693.97;;;19.06;52.42
60479;BME280;46321;48.398;11.754;2023-08-08T07:51:28;96698.38;;;19.19;51.18
60479;BME280;46321;48.398;11.754;2023-08-08T07:53:53;96691.66;;;19.29;50.38
60479;BME280;46321;48.398;11.754;2023-08-08T07:56:19;96694.63;;;19.39;50.76
60479;BME280;46321;48.398;11.754;2023-08-08T07:58:44;96695.72;;;19.50;51.04
60479;BME280;46321;48.398;11.754;2023-08-08T08:01:09;96706.13;;;19.59;50.33
60479;BME280;46321;48.398;11.754;2023-08-08T08:03:36;96689.66;;;19.55;50.37
60479;BME280;46321;48.398;11.754;2023-08-08T08:06:01;96695.22;;;19.84;50.92
60479;BME280;46321;48.398;11.754;2023-08-08T08:08:27;96690.25;;;20.00;51.28
60479;BME280;46321;48.398;11.754;2023-08-08T08:10:52;96693.19;;;20.34;50.05
60479;BME280;46321;48.398;11.754;2023-08-08T08:13:17;96689.56;;;20.53;48.41
60479;BME280;46321;48.398;11.754;2023-08-08T08:15:43;96680.34;;;20.61;47.30
60479;BME280;46321;48.398;11.754;2023-08-08T08:18:08;96689.00;;;20.63;46.91
60479;BME280;46321;48.398;11.754;2023-08-08T08:20:33;96678.13;;;20.33;46.68
60479;BME280;46321;48.398;11.754;2023-08-08T08:22:59;96675.69;;;20.56;47.34
60479;BME280;46321;48.398;11.754;2023-08-08T08:25:24;96676.59;;;20.62;48.51
60479;BME280;46321;48.398;11.754;2023-08-08T08:27:49;96670.00;;;20.93;48.38
60479;BME280;46321;48.398;11.754;2023-08-08T08:30:15;96673.44;;;21.30;47.26
60479;BME280;46321;48.398;11.754;2023-08-08T08:32:41;96664.09;;;21.67;47.84
60479;BME280;46321;48.398;11.754;2023-08-08T08:35:06;96663.66;;;21.88;46.47
60479;BME280;46321;48.398;11.754;2023-08-08T08:37:32;96658.03;;;22.06;44.36
60479;BME280;46321;48.398;11.754;2023-08-08T08:39:58;96663.50;;;21.94;45.40
60479;BME280;46321;48.398;11.754;2023-08-08T08:42:23;96653.44;;;22.07;43.89
60479;BME280;46321;48.398;11.754;2023-08-08T08:44:49;96653.53;;;21.48;44.12
60479;BME280;46321;48.398;11.754;2023-08-08T08:47:14;96664.53;;;21.76;43.37
60479;BME280;46321;48.398;11.754;2023-08-08T08:49:41;96656.91;;;21.56;42.85
60479;BME280;46321;48.398;11.754;2023-08-08T08:52:07;96654.91;;;21.80;43.52
60479;BME280;46321;48.398;11.754;2023-08-08T08:54:32;96649.63;;;21.39;43.92
60479;BME280;46321;48.398;11.754;2023-08-08T08:56:58;96645.69;;;21.93;43.57
60479;BME280;46321;48.398;11.754;2023-08-08T08:59:23;96649.84;;;22.18;42.85
60479;BME280;46321;48.398;11.754;2023-08-08T09:01:49;96648.16;;;22.52;42.12
60479;BME280;46321;48.398;11.754;2023-08-08T09:04:14;96638.28;;;22.58;42.47
60479;BME280;46321;48.398;11.754;2023-08-08T09:06:42;96636.41;;;23.03;43.55
60479;BME280;46321;48.398;11.754;2023-08-08T09:09:08;96634.22;;;23.50;42.28
60479;BME280;46321;48.398;11.754;2023-08-08T09:11:33;96636.56;;;23.19;40.53
60479;BME280;46321;48.398;11.754;2023-08-08T09:13:59;96644.88;;;23.12;40.99
60479;BME280;46321;48.398;11.754;2023-08-08T09:16:25;96631.25;;;23.24;41.04
60479;BME280;46321;48.398;11.754;2023-08-08T09:18:50;96639.00;;;23.43;40.03
60479;BME280;46321;48.398;11.754;2023-08-08T09:21:15;96632.06;;;23.52;39.17
60479;BME280;46321;48.398;11.754;2023-08-08T09:23:41;96635.59;;;23.53;39.75
60479;BME280;46321;48.398;11.754;2023-08-08T09:26:06;96636.50;;;23.64;39.45
60479;BME280;46321;48.398;11.754;2023-08-08T09:28:31;96638.38;;;23.36;39.94
60479;BME280;46321;48.398;11.754;2023-08-08T09:30:57;96630.78;;;23.32;39.95
60479;BME280;46321;48.398;11.754;2023-08-08T09:33:27;96640.50;;;23.33;39.88
60479;BME280;46321;48.398;11.754;2023-08-08T09:35:53;96632.09;;;23.30;40.06
60479;BME280;46321;48.398;11.754;2023-08-08T09:38:19;96620.94;;;22.93;39.21
60479;BME280;46321;48.398;11.754;2023-08-08T09:40:44;96628.00;;;22.77;40.78
60479;BME280;46321;48.398;11.754;2023-08-08T09:43:11;96622.31;;;22.96;39.99
60479;BME280;46321;48.398;11.754;2023-08-08T09:45:37;96622.78;;;23.15;39.77
60479;BME280;46321;48.398;11.754;2023-08-08T09:48:03;96615.94;;;23.35;41.18
60479;BME280;46321;48.398;11.754;2023-08-08T09:50:28;96613.91;;;23.20;41.15
60479;BME280;46321;48.398;11.754;2023-08-08T09:52:54;96603.75;;;23.27;40.77
60479;BME280;46321;48.398;11.754;2023-08-08T09:55:20;96610.25;;;23.31;38.87
60479;BME280;46321;48.398;11.754;2023-08-08T09:57:46;96615.59;;;23.26;39.49
60479;BME280;46321;48.398;11.754;2023-08-08T10:00:12;96610.50;;;23.02;40.08
60479;BME280;46321;48.398;11.754;2023-08-08T10:02:44;96612.53;;;23.17;40.24
60479;BME280;46321;48.398;11.754;2023-08-08T10:05:10;96619.06;;;23.21;39.51
60479;BME280;46321;48.398;11.754;2023-08-08T10:07:37;96613.81;;;23.09;40.10
60479;BME280;46321;48.398;11.754;2023-08-08T10:10:03;96607.53;;;23.54;39.60
60479;BME280;46321;48.398;11.754;2023-08-08T10:12:28;96617.97;;;23.78;39.03
60479;BME280;46321;48.398;11.754;2023-08-08T10:14:54;96611.97;;;23.71;39.31
60479;BME280;46321;48.398;11.754;2023-08-08T10:17:19;96614.97;;;24.51;38.54
60479;BME280;46321;48.398;11.754;2023-08-08T10:19:51;96609.47;;;24.35;38.76
60479;BME280;46321;48.398;11.754;2023-08-08T10:22:20;96608.41;;;24.41;36.76
60479;BME280;46321;48.398;11.754;2023-08-08T10:24:46;96607.88;;;24.01;37.30
60479;BME280;46321;48.398;11.754;2023-08-08T10:27:13;96606.13;;;23.84;37.22
60479;BME280;46321;48.398;11.754;2023-08-08T10:29:40;96607.81;;;23.58;37.93
60479;BME280;46321;48.398;11.754;2023-08-08T10:32:06;96594.50;;;23.84;36.14
60479;BME280;46321;48.398;11.754;2023-08-08T10:34:39;96606.06;;;24.12;36.63
60479;BME280;46321;48.398;11.754;2023-08-08T10:37:05;96617.59;;;24.35;35.96
60479;BME280;46321;48.398;11.754;2023-08-08T10:39:30;96610.00;;;23.94;36.10
60479;BME280;46321;48.398;11.754;2023-08-08T10:41:59;96613.25;;;23.96;35.78
60479;BME280;46321;48.398;11.754;2023-08-08T10:44:25;96609.22;;;23.98;35.60
60479;BME280;46321;48.398;11.754;2023-08-08T10:46:51;96600.00;;;23.94;35.46
60479;BME280;46321;48.398;11.754;2023-08-08T10:49:17;96595.59;;;23.83;36.75
60479;BME280;46321;48.398;11.754;2023-08-08T10:51:43;96594.72;;;23.77;36.86
60479;BME280;46321;48.398;11.754;2023-08-08T10:56:47;96587.78;;;23.86;37.38
60479;BME280;46321;48.398;11.754;2023-08-08T10:59:20;96589.13;;;24.27;37.68
60479;BME280;46321;48.398;11.754;2023-08-08T11:01:46;96597.59;;;24.41;37.46
60479;BME280;46321;48.398;11.754;2023-08-08T11:04:12;96587.31;;;24.00;36.18
60479;BME280;46321;48.398;11.754;2023-08-08T11:06:38;96586.03;;;24.13;37.52
60479;BME280;46321;48.398;11.754;2023-08-08T11:09:07;96585.50;;;24.11;38.22
60479;BME280;46321;48.398;11.754;2023-08-08T11:11:39;96588.19;;;24.11;37.06
60479;BME280;46321;48.398;11.754;2023-08-08T11:16:39;96593.25;;;23.59;36.86
60479;BME280;46321;48.398;11.754;2023-08-08T11:19:04;96588.41;;;23.66;36.92
60479;BME280;46321;48.398;11.754;2023-08-08T11:21:29;96588.03;;;23.24;36.94
60479;BME280;46321;48.398;11.754;2023-08-08T11:23:54;96581.84;;;22.73;36.79
60479;BME280;46321;48.398;11.754;2023-08-08T11:26:20;96575.31;;;22.47;37.08
60479;BME280;46321;48.398;11.754;2023-08-08T11:28:48;96575.16;;;22.59;37.60
60479;BME280;46321;48.398;11.754;2023-08-08T11:31:14;96571.94;;;22.79;38.96
60479;BME280;46321;48.398;11.754;2023-08-08T11:33:39;96576.81;;;22.82;38.97
60479;BME280;46321;48.398;11.754;2023-08-08T11:36:04;96564.28;;;22.71;38.52
60479;BME280;46321;48.398;11.754;2023-08-08T11:38:30;96564.28;;;22.98;39.00
60479;BME280;46321;48.398;11.754;2023-08-08T11:40:55;96560.75;;;22.93;38.08
60479;BME280;46321;48.398;11.754;2023-08-08T11:43:20;96551.47;;;22.83;38.00
60479;BME280;46321;48.398;11.754;2023-08-08T11:45:48;96564.09;;;23.05;37.65
60479;BME280;46321;48.398;11.754;2023-08-08T11:48:14;96567.69;;;23.11;38.00
60479;BME280;46321;48.398;11.754;2023-08-08T11:50:40;96559.97;;;22.97;36.77
60479;BME280;46321;48.398;11.754;2023-08-08T11:53:07;96561.31;;;22.95;38.32
60479;BME280;46321;48.398;11.754;2023-08-08T11:55:32;96564.72;;;22.62;38.69
60479;BME280;46321;48.398;11.754;2023-08-08T11:57:57;96553.56;;;22.76;37.49
60479;BME280;46321;48.398;11.754;2023-08-08T12:00:26;96551.06;;;22.69;38.43
60479;BME280;46321;48.398;11.754;2023-08-08T12:02:52;96546.41;;;22.87;38.22
60479;BME280;46321;48.398;11.754;2023-08-08T12:05:20;96555.19;;;22.77;37.76
60479;BME280;46321;48.398;11.754;2023-08-08T12:07:47;96541.50;;;22.84;37.83
60479;BME280;46321;48.398;11.754;2023-08-08T12:10:16;96549.84;;;22.82;36.36
60479;BME280;46321;48.398;11.754;2023-08-08T12:12:45;96548.66;;;22.73;37.19
60479;BME280;46321;48.398;11.754;2023-08-08T12:15:10;96551.47;;;22.83;38.86
60479;BME280;46321;48.398;11.754;2023-08-08T12:17:36;96547.50;;;22.91;38.65
60479;BME280;46321;48.398;11.754;2023-08-08T12:20:04;96543.69;;;22.64;38.21
60479;BME280;46321;48.398;11.754;2023-08-08T12:22:30;96552.97;;;22.51;38.73
60479;BME280;46321;48.398;11.754;2023-08-08T12:24:56;96543.00;;;22.52;35.98
60479;BME280;46321;48.398;11.754;2023-08-08T12:27:21;96545.00;;;22.62;36.50
60479;BME280;46321;48.398;11.754;2023-08-08T12:29:46;96543.56;;;22.54;36.92
60479;BME280;46321;48.398;11.754;2023-08-08T12:32:11;96546.13;;;22.66;37.96
60479;BME280;46321;48.398;11.754;2023-08-08T12:34:36;96539.44;;;22.69;37.64
60479;BME280;46321;48.398;11.754;2023-08-08T12:37:02;96536.75;;;22.69;37.46
60479;BME280;46321;48.398;11.754;2023-08-08T12:39:27;96532.91;;;22.64;38.30
60479;BME280;46321;48.398;11.754;2023-08-08T12:41:53;96539.09;;;22.65;37.76
60479;BME280;46321;48.398;11.754;2023-08-08T12:44:18;96532.28;;;22.57;37.33
60479;BME280;46321;48.398;11.754;2023-08-08T12:46:43;96525.50;;;22.77;37.04